Terminal Aerodrome Forecast
Issued by NWS Raleigh/Durham, NC

Home | Current Version | Previous Version | Text Only | Print | Product List | Glossary On
Versions: 1 2 3 4 5 6 7 8 9 10 11 12 13 14 15 16 17 18 19 20 21 22 23 24 25 26 27 28 29 30 31 32 33 34 35 36 37 38 39 40 41 42 43 44 45 46 47 48 49 50
000
FTUS42 KRAH 111906 AAA
TAFFAY
TAF AMD
KFAY 111906Z 1119/1218 10006KT P6SM SCT025 SCT050
     FM120800 VRB02KT 4SM BR FEW003 SCT050
      TEMPO 1210/1212 2SM BR BKN003
     FM121300 10005KT P6SM SCT040=

USA.gov is the U.S. government's official web portal to all federal, state and local government web resources and services.